sensor_id;sensor_type;location;lat;lon;timestamp;pressure;altitude;pressure_sealevel;temperature;humidity
39715;BME280;54166;53.172;-6.552;2023-02-12T00:01:08;101082.40;;;16.46;36.85
39715;BME280;54166;53.172;-6.552;2023-02-12T00:03:35;101084.71;;;16.42;37.05
39715;BME280;54166;53.172;-6.552;2023-02-12T00:06:03;101086.09;;;16.74;36.66
39715;BME280;54166;53.172;-6.552;2023-02-12T00:08:32;101085.77;;;16.03;36.57
39715;BME280;54166;53.172;-6.552;2023-02-12T00:10:59;101083.42;;;16.45;36.54
39715;BME280;54166;53.172;-6.552;2023-02-12T00:13:32;101080.10;;;16.77;36.62
39715;BME280;54166;53.172;-6.552;2023-02-12T00:16:03;101077.20;;;16.44;36.72
39715;BME280;54166;53.172;-6.552;2023-02-12T00:18:30;101078.70;;;16.78;36.71
39715;BME280;54166;53.172;-6.552;2023-02-12T00:20:59;101080.78;;;16.79;36.69
39715;BME280;54166;53.172;-6.552;2023-02-12T00:23:27;101072.41;;;16.46;36.60
39715;BME280;54166;53.172;-6.552;2023-02-12T00:25:55;101069.00;;;16.79;36.65
39715;BME280;54166;53.172;-6.552;2023-02-12T00:28:22;101075.78;;;16.81;36.61
39715;BME280;54166;53.172;-6.552;2023-02-12T00:30:49;101070.30;;;16.48;36.50
39715;BME280;54166;53.172;-6.552;2023-02-12T00:33:17;101073.95;;;16.47;36.51
39715;BME280;54166;53.172;-6.552;2023-02-12T00:35:44;101071.70;;;16.81;36.44
39715;BME280;54166;53.172;-6.552;2023-02-12T00:38:11;101069.20;;;16.09;36.44
39715;BME280;54166;53.172;-6.552;2023-02-12T00:40:38;101068.92;;;16.83;36.42
39715;BME280;54166;53.172;-6.552;2023-02-12T00:43:05;101075.14;;;16.82;36.42
39715;BME280;54166;53.172;-6.552;2023-02-12T00:45:32;101071.77;;;16.49;36.40
39715;BME280;54166;53.172;-6.552;2023-02-12T00:47:59;101069.60;;;16.83;36.27
39715;BME280;54166;53.172;-6.552;2023-02-12T00:50:26;101073.14;;;16.08;36.31
39715;BME280;54166;53.172;-6.552;2023-02-12T00:52:53;101066.84;;;16.07;36.33
39715;BME280;54166;53.172;-6.552;2023-02-12T00:55:20;101062.92;;;16.48;36.22
39715;BME280;54166;53.172;-6.552;2023-02-12T00:57:48;101058.14;;;16.80;36.30
39715;BME280;54166;53.172;-6.552;2023-02-12T01:00:15;101060.92;;;16.05;36.29
39715;BME280;54166;53.172;-6.552;2023-02-12T01:02:43;101057.73;;;16.06;36.25
39715;BME280;54166;53.172;-6.552;2023-02-12T01:05:10;101057.64;;;16.78;36.19
39715;BME280;54166;53.172;-6.552;2023-02-12T01:07:37;101051.40;;;16.77;36.18
39715;BME280;54166;53.172;-6.552;2023-02-12T01:10:07;101044.98;;;16.77;36.14
39715;BME280;54166;53.172;-6.552;2023-02-12T01:12:35;101042.91;;;16.75;36.12
39715;BME280;54166;53.172;-6.552;2023-02-12T01:15:02;101042.16;;;16.74;36.10
39715;BME280;54166;53.172;-6.552;2023-02-12T01:17:29;101040.44;;;16.73;36.09
39715;BME280;54166;53.172;-6.552;2023-02-12T01:19:56;101035.03;;;16.00;36.05
39715;BME280;54166;53.172;-6.552;2023-02-12T01:22:24;101033.64;;;16.73;36.04
39715;BME280;54166;53.172;-6.552;2023-02-12T01:24:51;101031.34;;;16.38;36.06
39715;BME280;54166;53.172;-6.552;2023-02-12T01:27:18;101026.50;;;15.97;36.02
39715;BME280;54166;53.172;-6.552;2023-02-12T01:29:45;101022.80;;;16.37;35.98
39715;BME280;54166;53.172;-6.552;2023-02-12T01:32:12;101020.53;;;16.70;35.95
39715;BME280;54166;53.172;-6.552;2023-02-12T01:34:39;101022.24;;;16.38;35.94
39715;BME280;54166;53.172;-6.552;2023-02-12T01:37:06;101022.61;;;16.36;35.93
39715;BME280;54166;53.172;-6.552;2023-02-12T01:39:33;101020.73;;;16.35;35.87
39715;BME280;54166;53.172;-6.552;2023-02-12T01:42:02;101020.63;;;16.35;35.81
39715;BME280;54166;53.172;-6.552;2023-02-12T01:44:31;101017.68;;;15.94;35.81
39715;BME280;54166;53.172;-6.552;2023-02-12T01:47:00;101014.15;;;16.66;35.79
39715;BME280;54166;53.172;-6.552;2023-02-12T01:49:32;101010.44;;;16.31;35.76
39715;BME280;54166;53.172;-6.552;2023-02-12T01:52:05;101009.70;;;16.63;35.77
39715;BME280;54166;53.172;-6.552;2023-02-12T01:54:34;101009.60;;;15.86;35.79
39715;BME280;54166;53.172;-6.552;2023-02-12T01:57:04;101007.88;;;16.26;35.75
39715;BME280;54166;53.172;-6.552;2023-02-12T01:59:32;101004.45;;;16.58;35.76
39715;BME280;54166;53.172;-6.552;2023-02-12T02:02:01;101005.40;;;16.58;35.72
39715;BME280;54166;53.172;-6.552;2023-02-12T02:04:35;101005.70;;;16.24;35.69
39715;BME280;54166;53.172;-6.552;2023-02-12T02:07:04;101001.38;;;16.22;35.66
39715;BME280;54166;53.172;-6.552;2023-02-12T02:09:35;101001.84;;;16.22;35.65
39715;BME280;54166;53.172;-6.552;2023-02-12T02:12:03;101003.56;;;16.53;35.63
39715;BME280;54166;53.172;-6.552;2023-02-12T02:14:30;101002.28;;;16.19;35.60
39715;BME280;54166;53.172;-6.552;2023-02-12T02:17:19;101001.58;;;16.54;35.55
39715;BME280;54166;53.172;-6.552;2023-02-12T02:20:04;100995.28;;;15.75;35.59
39715;BME280;54166;53.172;-6.552;2023-02-12T02:22:40;100994.24;;;16.12;35.61
39715;BME280;54166;53.172;-6.552;2023-02-12T02:25:39;100995.28;;;15.73;35.59
39715;BME280;54166;53.172;-6.552;2023-02-12T02:28:26;100995.42;;;16.40;35.63
39715;BME280;54166;53.172;-6.552;2023-02-12T02:30:59;100992.62;;;16.38;35.64
39715;BME280;54166;53.172;-6.552;2023-02-12T02:33:38;100997.90;;;16.39;35.61
39715;BME280;54166;53.172;-6.552;2023-02-12T02:36:14;100996.20;;;16.40;35.54
39715;BME280;54166;53.172;-6.552;2023-02-12T02:38:50;100996.15;;;16.38;35.55
39715;BME280;54166;53.172;-6.552;2023-02-12T02:41:21;100999.42;;;16.38;35.51
39715;BME280;54166;53.172;-6.552;2023-02-12T02:43:53;100998.47;;;16.39;35.47
39715;BME280;54166;53.172;-6.552;2023-02-12T02:46:26;100996.85;;;16.39;35.32
39715;BME280;54166;53.172;-6.552;2023-02-12T02:48:59;100989.07;;;15.64;35.35
39715;BME280;54166;53.172;-6.552;2023-02-12T02:51:30;100988.27;;;16.38;35.23
39715;BME280;54166;53.172;-6.552;2023-02-12T02:54:03;100988.52;;;16.37;35.18
39715;BME280;54166;53.172;-6.552;2023-02-12T02:56:36;100982.18;;;16.36;35.26
39715;BME280;54166;53.172;-6.552;2023-02-12T02:59:07;100983.36;;;16.36;35.19
39715;BME280;54166;53.172;-6.552;2023-02-12T03:01:39;100982.26;;;16.01;35.14
39715;BME280;54166;53.172;-6.552;2023-02-12T03:04:12;100982.33;;;16.34;35.03
39715;BME280;54166;53.172;-6.552;2023-02-12T03:06:45;100983.95;;;16.32;35.09
39715;BME280;54166;53.172;-6.552;2023-02-12T03:09:18;100987.01;;;16.30;35.15
39715;BME280;54166;53.172;-6.552;2023-02-12T03:11:46;100986.19;;;16.29;35.18
39715;BME280;54166;53.172;-6.552;2023-02-12T03:14:16;100986.55;;;16.28;35.17
39715;BME280;54166;53.172;-6.552;2023-02-12T03:16:50;100985.07;;;16.29;35.07
39715;BME280;54166;53.172;-6.552;2023-02-12T03:19:23;100982.67;;;16.27;35.12
39715;BME280;54166;53.172;-6.552;2023-02-12T03:21:55;100981.60;;;15.94;35.07
39715;BME280;54166;53.172;-6.552;2023-02-12T03:24:30;100979.35;;;16.59;34.80
39715;BME280;54166;53.172;-6.552;2023-02-12T03:27:03;100977.54;;;16.24;34.73
39715;BME280;54166;53.172;-6.552;2023-02-12T03:29:33;100970.52;;;16.24;34.58
39715;BME280;54166;53.172;-6.552;2023-02-12T03:32:10;100970.45;;;16.24;34.47
39715;BME280;54166;53.172;-6.552;2023-02-12T03:34:46;100969.53;;;15.87;34.07
39715;BME280;54166;53.172;-6.552;2023-02-12T03:37:20;100971.05;;;15.84;33.83
39715;BME280;54166;53.172;-6.552;2023-02-12T03:39:54;100970.07;;;15.83;33.73
39715;BME280;54166;53.172;-6.552;2023-02-12T03:42:32;100971.02;;;16.14;33.66
39715;BME280;54166;53.172;-6.552;2023-02-12T03:45:04;100968.31;;;16.10;33.65
39715;BME280;54166;53.172;-6.552;2023-02-12T03:47:40;100966.72;;;15.76;33.60
39715;BME280;54166;53.172;-6.552;2023-02-12T03:50:11;100963.11;;;16.06;33.58
39715;BME280;54166;53.172;-6.552;2023-02-12T03:52:40;100962.03;;;16.07;33.57
39715;BME280;54166;53.172;-6.552;2023-02-12T03:55:09;100960.28;;;16.05;33.53
39715;BME280;54166;53.172;-6.552;2023-02-12T03:57:40;100963.32;;;16.04;33.53
39715;BME280;54166;53.172;-6.552;2023-02-12T04:00:14;100962.97;;;16.02;33.54
39715;BME280;54166;53.172;-6.552;2023-02-12T04:02:42;100957.00;;;15.67;33.53
39715;BME280;54166;53.172;-6.552;2023-02-12T04:05:17;100953.16;;;15.99;33.50
39715;BME280;54166;53.172;-6.552;2023-02-12T04:07:45;100947.81;;;15.63;33.50
39715;BME280;54166;53.172;-6.552;2023-02-12T04:10:13;100943.85;;;15.96;33.47
39715;BME280;54166;53.172;-6.552;2023-02-12T04:12:46;100942.75;;;15.96;33.47
39715;BME280;54166;53.172;-6.552;2023-02-12T04:15:28;100942.86;;;15.93;33.43
39715;BME280;54166;53.172;-6.552;2023-02-12T04:18:06;100946.82;;;15.91;33.43
39715;BME280;54166;53.172;-6.552;2023-02-12T04:20:42;100940.83;;;15.90;33.44
39715;BME280;54166;53.172;-6.552;2023-02-12T04:23:24;100945.11;;;15.88;33.43
39715;BME280;54166;53.172;-6.552;2023-02-12T04:26:00;100944.74;;;15.84;33.41
39715;BME280;54166;53.172;-6.552;2023-02-12T04:28:39;100950.45;;;15.83;33.39
39715;BME280;54166;53.172;-6.552;2023-02-12T04:31:16;100951.70;;;15.82;33.41
39715;BME280;54166;53.172;-6.552;2023-02-12T04:33:50;100955.97;;;15.81;33.45
39715;BME280;54166;53.172;-6.552;2023-02-12T04:36:25;100956.06;;;15.80;33.34
39715;BME280;54166;53.172;-6.552;2023-02-12T04:38:57;100955.90;;;15.79;33.32
39715;BME280;54166;53.172;-6.552;2023-02-12T04:41:26;100955.06;;;15.79;33.25
39715;BME280;54166;53.172;-6.552;2023-02-12T04:43:53;100952.72;;;15.79;33.20
39715;BME280;54166;53.172;-6.552;2023-02-12T04:46:20;100954.62;;;15.79;33.24
39715;BME280;54166;53.172;-6.552;2023-02-12T04:48:51;100953.70;;;15.78;33.17
39715;BME280;54166;53.172;-6.552;2023-02-12T04:51:19;100956.02;;;15.76;33.17
39715;BME280;54166;53.172;-6.552;2023-02-12T04:56:24;100959.42;;;17.10;33.54
39715;BME280;54166;53.172;-6.552;2023-02-12T04:58:51;100961.91;;;15.52;33.40
39715;BME280;54166;53.172;-6.552;2023-02-12T05:01:18;100960.82;;;15.61;33.27
39715;BME280;54166;53.172;-6.552;2023-02-12T05:03:45;100958.20;;;15.63;33.26
39715;BME280;54166;53.172;-6.552;2023-02-12T05:06:12;100964.20;;;15.97;33.23
39715;BME280;54166;53.172;-6.552;2023-02-12T05:08:39;100964.58;;;15.65;33.21
39715;BME280;54166;53.172;-6.552;2023-02-12T05:11:08;100960.02;;;15.64;33.17
39715;BME280;54166;53.172;-6.552;2023-02-12T05:13:35;100961.93;;;15.97;33.15
39715;BME280;54166;53.172;-6.552;2023-02-12T05:16:04;100960.56;;;15.63;33.13
39715;BME280;54166;53.172;-6.552;2023-02-12T05:18:32;100967.13;;;15.68;33.09
39715;BME280;54166;53.172;-6.552;2023-02-12T05:21:02;100961.20;;;15.66;33.16
39715;BME280;54166;53.172;-6.552;2023-02-12T05:23:32;100965.37;;;15.64;33.14
39715;BME280;54166;53.172;-6.552;2023-02-12T05:26:01;100962.84;;;15.96;33.05
39715;BME280;54166;53.172;-6.552;2023-02-12T05:28:30;100965.27;;;15.61;33.01
39715;BME280;54166;53.172;-6.552;2023-02-12T05:30:59;100963.22;;;15.61;32.99
39715;BME280;54166;53.172;-6.552;2023-02-12T05:33:27;100961.39;;;15.60;33.01
39715;BME280;54166;53.172;-6.552;2023-02-12T05:35:54;100958.99;;;15.58;32.99
39715;BME280;54166;53.172;-6.552;2023-02-12T05:38:22;100959.62;;;15.57;32.97
39715;BME280;54166;53.172;-6.552;2023-02-12T05:40:49;100962.62;;;15.88;32.99
39715;BME280;54166;53.172;-6.552;2023-02-12T05:43:16;100957.46;;;15.54;32.99
39715;BME280;54166;53.172;-6.552;2023-02-12T05:45:43;100957.77;;;15.52;32.97
39715;BME280;54166;53.172;-6.552;2023-02-12T05:48:10;100957.45;;;15.85;33.02
39715;BME280;54166;53.172;-6.552;2023-02-12T05:50:37;100955.79;;;15.51;33.05
39715;BME280;54166;53.172;-6.552;2023-02-12T05:53:04;100958.41;;;15.84;33.07
39715;BME280;54166;53.172;-6.552;2023-02-12T05:55:32;100956.92;;;15.50;33.07
39715;BME280;54166;53.172;-6.552;2023-02-12T05:57:59;100958.12;;;15.49;33.02
39715;BME280;54166;53.172;-6.552;2023-02-12T06:00:27;100958.32;;;15.81;33.00
39715;BME280;54166;53.172;-6.552;2023-02-12T06:02:53;100956.94;;;15.80;33.01
39715;BME280;54166;53.172;-6.552;2023-02-12T06:05:20;100958.71;;;15.78;33.01
39715;BME280;54166;53.172;-6.552;2023-02-12T06:07:47;100955.90;;;15.77;32.97
39715;BME280;54166;53.172;-6.552;2023-02-12T06:10:14;100956.25;;;15.43;33.05
39715;BME280;54166;53.172;-6.552;2023-02-12T06:12:41;100952.41;;;15.76;32.97
39715;BME280;54166;53.172;-6.552;2023-02-12T06:15:09;100950.82;;;15.41;32.97
39715;BME280;54166;53.172;-6.552;2023-02-12T06:17:36;100950.70;;;15.41;32.98
39715;BME280;54166;53.172;-6.552;2023-02-12T06:20:04;100953.24;;;15.74;32.98
39715;BME280;54166;53.172;-6.552;2023-02-12T06:22:31;100950.32;;;15.72;32.98
39715;BME280;54166;53.172;-6.552;2023-02-12T06:24:58;100953.23;;;15.38;32.96
39715;BME280;54166;53.172;-6.552;2023-02-12T06:27:25;100953.36;;;15.73;32.95
39715;BME280;54166;53.172;-6.552;2023-02-12T06:29:52;100952.14;;;15.37;32.97
39715;BME280;54166;53.172;-6.552;2023-02-12T06:32:19;100947.75;;;15.69;32.99
39715;BME280;54166;53.172;-6.552;2023-02-12T06:34:46;100946.76;;;15.35;33.01
39715;BME280;54166;53.172;-6.552;2023-02-12T06:37:13;100943.54;;;15.40;32.97
39715;BME280;54166;53.172;-6.552;2023-02-12T06:39:40;100939.73;;;15.38;32.98
39715;BME280;54166;53.172;-6.552;2023-02-12T06:42:07;100938.01;;;15.69;33.01
39715;BME280;54166;53.172;-6.552;2023-02-12T06:44:35;100935.55;;;15.66;33.01
39715;BME280;54166;53.172;-6.552;2023-02-12T06:47:03;100936.11;;;15.30;33.03
39715;BME280;54166;53.172;-6.552;2023-02-12T06:49:30;100934.26;;;15.28;33.05
39715;BME280;54166;53.172;-6.552;2023-02-12T06:51:56;100931.60;;;15.61;33.08
39715;BME280;54166;53.172;-6.552;2023-02-12T06:54:24;100932.84;;;15.60;33.02
39715;BME280;54166;53.172;-6.552;2023-02-12T06:56:51;100928.30;;;15.25;32.97
39715;BME280;54166;53.172;-6.552;2023-02-12T06:59:18;100928.77;;;15.58;32.99
39715;BME280;54166;53.172;-6.552;2023-02-12T07:01:45;100930.95;;;15.24;32.97
39715;BME280;54166;53.172;-6.552;2023-02-12T07:04:12;100931.04;;;15.56;32.99
39715;BME280;54166;53.172;-6.552;2023-02-12T07:06:39;100930.96;;;15.55;32.97
39715;BME280;54166;53.172;-6.552;2023-02-12T07:09:07;100929.60;;;15.22;32.96
39715;BME280;54166;53.172;-6.552;2023-02-12T07:11:35;100925.74;;;15.53;32.95
39715;BME280;54166;53.172;-6.552;2023-02-12T07:14:03;100925.27;;;15.52;32.98
39715;BME280;54166;53.172;-6.552;2023-02-12T07:16:30;100925.53;;;15.17;32.98
39715;BME280;54166;53.172;-6.552;2023-02-12T07:18:57;100924.86;;;15.17;33.01
39715;BME280;54166;53.172;-6.552;2023-02-12T07:21:24;100927.11;;;15.16;33.00
39715;BME280;54166;53.172;-6.552;2023-02-12T07:23:52;100934.20;;;15.15;32.98
39715;BME280;54166;53.172;-6.552;2023-02-12T07:26:20;100933.42;;;15.49;32.98
39715;BME280;54166;53.172;-6.552;2023-02-12T07:28:47;100939.91;;;15.14;32.98
39715;BME280;54166;53.172;-6.552;2023-02-12T07:31:17;100941.78;;;15.18;32.95
39715;BME280;54166;53.172;-6.552;2023-02-12T07:33:45;100941.42;;;15.48;32.96
39715;BME280;54166;53.172;-6.552;2023-02-12T07:36:14;100940.01;;;15.46;32.98
39715;BME280;54166;53.172;-6.552;2023-02-12T07:38:43;100940.99;;;15.44;32.97
39715;BME280;54166;53.172;-6.552;2023-02-12T07:41:12;100942.00;;;15.11;32.98
39715;BME280;54166;53.172;-6.552;2023-02-12T07:43:40;100943.70;;;15.42;32.95
39715;BME280;54166;53.172;-6.552;2023-02-12T07:46:10;100944.84;;;15.08;33.01
39715;BME280;54166;53.172;-6.552;2023-02-12T07:48:38;100948.66;;;15.40;33.03
39715;BME280;54166;53.172;-6.552;2023-02-12T07:51:08;100950.85;;;15.06;32.96
39715;BME280;54166;53.172;-6.552;2023-02-12T07:53:36;100954.59;;;15.79;33.05
39715;BME280;54166;53.172;-6.552;2023-02-12T07:56:08;100958.69;;;15.04;32.99
39715;BME280;54166;53.172;-6.552;2023-02-12T07:58:37;100962.73;;;15.36;33.02
39715;BME280;54166;53.172;-6.552;2023-02-12T08:01:14;100963.91;;;15.36;32.97
39715;BME280;54166;53.172;-6.552;2023-02-12T08:03:42;100967.82;;;15.33;33.03
39715;BME280;54166;53.172;-6.552;2023-02-12T08:06:11;100970.17;;;15.32;32.99
39715;BME280;54166;53.172;-6.552;2023-02-12T08:08:39;100974.56;;;15.33;33.08
39715;BME280;54166;53.172;-6.552;2023-02-12T08:11:07;100976.01;;;15.33;32.98
39715;BME280;54166;53.172;-6.552;2023-02-12T08:13:35;100976.19;;;15.72;32.92
39715;BME280;54166;53.172;-6.552;2023-02-12T08:16:05;100978.37;;;15.32;33.04
39715;BME280;54166;53.172;-6.552;2023-02-12T08:18:33;100980.02;;;15.31;32.92
39715;BME280;54166;53.172;-6.552;2023-02-12T08:21:01;100977.34;;;14.97;32.93
39715;BME280;54166;53.172;-6.552;2023-02-12T08:23:29;100979.58;;;15.30;33.01
39715;BME280;54166;53.172;-6.552;2023-02-12T08:26:05;100979.48;;;14.96;32.95
39715;BME280;54166;53.172;-6.552;2023-02-12T08:28:32;100979.36;;;15.67;32.94
39715;BME280;54166;53.172;-6.552;2023-02-12T08:31:00;100982.88;;;15.27;32.94
39715;BME280;54166;53.172;-6.552;2023-02-12T08:33:27;100984.68;;;15.26;32.95
39715;BME280;54166;53.172;-6.552;2023-02-12T08:36:01;100980.60;;;14.93;32.96
39715;BME280;54166;53.172;-6.552;2023-02-12T08:38:28;100982.70;;;15.25;33.00
39715;BME280;54166;53.172;-6.552;2023-02-12T08:41:00;100984.04;;;14.91;33.02
39715;BME280;54166;53.172;-6.552;2023-02-12T08:43:28;100981.72;;;15.24;33.09
39715;BME280;54166;53.172;-6.552;2023-02-12T08:46:01;100982.27;;;15.24;33.14
39715;BME280;54166;53.172;-6.552;2023-02-12T08:48:28;100980.95;;;15.23;33.08
39715;BME280;54166;53.172;-6.552;2023-02-12T08:50:55;100983.02;;;14.90;33.05
39715;BME280;54166;53.172;-6.552;2023-02-12T08:53:22;100977.57;;;15.22;33.02
39715;BME280;54166;53.172;-6.552;2023-02-12T08:55:50;100979.91;;;14.89;33.04
39715;BME280;54166;53.172;-6.552;2023-02-12T08:58:17;100980.86;;;15.62;33.00
39715;BME280;54166;53.172;-6.552;2023-02-12T09:00:44;100983.37;;;15.22;33.08
39715;BME280;54166;53.172;-6.552;2023-02-12T09:03:11;100977.32;;;15.21;33.05
39715;BME280;54166;53.172;-6.552;2023-02-12T09:05:38;100976.91;;;15.19;33.08
39715;BME280;54166;53.172;-6.552;2023-02-12T09:08:06;100971.51;;;15.19;33.09
39715;BME280;54166;53.172;-6.552;2023-02-12T09:10:33;100967.84;;;15.18;33.10
39715;BME280;54166;53.172;-6.552;2023-02-12T09:13:00;100965.89;;;15.19;33.11
39715;BME280;54166;53.172;-6.552;2023-02-12T09:15:27;100962.32;;;14.85;33.14
39715;BME280;54166;53.172;-6.552;2023-02-12T09:17:54;100964.17;;;15.58;33.11
39715;BME280;54166;53.172;-6.552;2023-02-12T09:20:21;100959.71;;;15.18;33.15
39715;BME280;54166;53.172;-6.552;2023-02-12T09:22:48;100955.75;;;15.18;33.22
39715;BME280;54166;53.172;-6.552;2023-02-12T09:25:15;100956.65;;;15.58;33.28
39715;BME280;54166;53.172;-6.552;2023-02-12T09:27:42;100957.54;;;15.18;33.22
39715;BME280;54166;53.172;-6.552;2023-02-12T09:30:10;100959.66;;;15.18;33.13
39715;BME280;54166;53.172;-6.552;2023-02-12T09:32:38;100956.60;;;15.17;33.18
39715;BME280;54166;53.172;-6.552;2023-02-12T09:35:05;100956.38;;;15.18;33.34
39715;BME280;54166;53.172;-6.552;2023-02-12T09:37:33;100954.87;;;15.18;33.25
39715;BME280;54166;53.172;-6.552;2023-02-12T09:40:00;100950.85;;;15.18;33.25
39715;BME280;54166;53.172;-6.552;2023-02-12T09:42:39;100948.44;;;15.19;33.29
39715;BME280;54166;53.172;-6.552;2023-02-12T09:45:16;100950.40;;;15.55;33.47
39715;BME280;54166;53.172;-6.552;2023-02-12T09:47:50;100949.79;;;15.15;33.54
39715;BME280;54166;53.172;-6.552;2023-02-12T09:50:33;100943.56;;;15.15;33.56
39715;BME280;54166;53.172;-6.552;2023-02-12T09:53:04;100941.08;;;15.13;33.40
39715;BME280;54166;53.172;-6.552;2023-02-12T09:55:33;100936.60;;;15.54;33.35
39715;BME280;54166;53.172;-6.552;2023-02-12T09:58:10;100930.95;;;15.16;33.46
39715;BME280;54166;53.172;-6.552;2023-02-12T10:00:38;100930.12;;;15.15;33.64
39715;BME280;54166;53.172;-6.552;2023-02-12T10:03:12;100933.15;;;15.19;33.47
39715;BME280;54166;53.172;-6.552;2023-02-12T10:05:45;100928.76;;;14.86;33.50
39715;BME280;54166;53.172;-6.552;2023-02-12T10:10:26;100928.60;;;15.22;33.15
39715;BME280;54166;53.172;-6.552;2023-02-12T10:13:01;100922.72;;;15.44;33.64
39715;BME280;54166;53.172;-6.552;2023-02-12T10:15:34;100926.84;;;15.11;33.99
39715;BME280;54166;53.172;-6.552;2023-02-12T10:18:16;100925.49;;;15.45;33.86
39715;BME280;54166;53.172;-6.552;2023-02-12T10:20:51;100929.33;;;15.79;33.79
39715;BME280;54166;53.172;-6.552;2023-02-12T10:23:35;100930.01;;;15.33;33.79
39715;BME280;54166;53.172;-6.552;2023-02-12T10:26:13;100924.44;;;14.95;33.94
39715;BME280;54166;53.172;-6.552;2023-02-12T10:28:43;100930.24;;;15.28;34.40
39715;BME280;54166;53.172;-6.552;2023-02-12T10:31:14;100930.22;;;15.29;34.29
39715;BME280;54166;53.172;-6.552;2023-02-12T10:33:45;100927.38;;;15.69;34.33
39715;BME280;54166;53.172;-6.552;2023-02-12T10:36:24;100930.46;;;15.28;34.38
39715;BME280;54166;53.172;-6.552;2023-02-12T10:38:59;100928.94;;;15.66;34.54
39715;BME280;54166;53.172;-6.552;2023-02-12T10:41:29;100929.25;;;15.30;34.68
39715;BME280;54166;53.172;-6.552;2023-02-12T10:43:57;100920.30;;;15.31;34.59
39715;BME280;54166;53.172;-6.552;2023-02-12T10:46:26;100921.14;;;15.34;34.54
39715;BME280;54166;53.172;-6.552;2023-02-12T10:48:57;100922.69;;;15.35;34.44
39715;BME280;54166;53.172;-6.552;2023-02-12T10:51:37;100920.04;;;15.00;34.26
39715;BME280;54166;53.172;-6.552;2023-02-12T10:54:41;100919.11;;;16.37;33.86
39715;BME280;54166;53.172;-6.552;2023-02-12T10:57:13;100916.52;;;15.26;33.51
39715;BME280;54166;53.172;-6.552;2023-02-12T10:59:43;100913.55;;;15.29;33.58
39715;BME280;54166;53.172;-6.552;2023-02-12T11:02:19;100918.08;;;15.31;33.62
39715;BME280;54166;53.172;-6.552;2023-02-12T11:04:47;100916.21;;;15.70;33.59
39715;BME280;54166;53.172;-6.552;2023-02-12T11:07:15;100910.41;;;15.30;33.50
39715;BME280;54166;53.172;-6.552;2023-02-12T11:09:44;100909.89;;;15.34;33.19
39715;BME280;54166;53.172;-6.552;2023-02-12T11:12:19;100912.40;;;15.34;33.15
39715;BME280;54166;53.172;-6.552;2023-02-12T11:14:52;100913.42;;;15.73;33.21
39715;BME280;54166;53.172;-6.552;2023-02-12T11:17:24;100908.35;;;15.35;33.22
39715;BME280;54166;53.172;-6.552;2023-02-12T11:20:27;100907.18;;;16.40;33.23
39715;BME280;54166;53.172;-6.552;2023-02-12T11:22:57;100911.23;;;15.28;33.26
39715;BME280;54166;53.172;-6.552;2023-02-12T11:25:26;100910.77;;;15.74;33.57
39715;BME280;54166;53.172;-6.552;2023-02-12T11:28:11;100908.76;;;15.03;33.83
39715;BME280;54166;53.172;-6.552;2023-02-12T11:30:49;100905.80;;;15.37;33.76
39715;BME280;54166;53.172;-6.552;2023-02-12T11:33:24;100903.54;;;15.36;33.78
39715;BME280;54166;53.172;-6.552;2023-02-12T11:35:54;100902.08;;;15.37;33.78
39715;BME280;54166;53.172;-6.552;2023-02-12T11:38:27;100899.93;;;15.35;34.05
39715;BME280;54166;53.172;-6.552;2023-02-12T11:41:00;100894.49;;;15.34;33.98
39715;BME280;54166;53.172;-6.552;2023-02-12T11:43:29;100884.20;;;15.36;33.77
39715;BME280;54166;53.172;-6.552;2023-02-12T11:45:58;100881.59;;;15.38;33.85
39715;BME280;54166;53.172;-6.552;2023-02-12T11:48:30;100884.92;;;15.39;33.97
39715;BME280;54166;53.172;-6.552;2023-02-12T11:51:01;100884.22;;;15.40;33.88
39715;BME280;54166;53.172;-6.552;2023-02-12T11:53:32;100886.79;;;15.83;33.88
39715;BME280;54166;53.172;-6.552;2023-02-12T11:56:01;100883.31;;;15.13;33.89
39715;BME280;54166;53.172;-6.552;2023-02-12T11:58:30;100882.81;;;15.49;33.86
39715;BME280;54166;53.172;-6.552;2023-02-12T12:01:03;100875.62;;;15.15;33.82
39715;BME280;54166;53.172;-6.552;2023-02-12T12:03:37;100874.94;;;15.13;33.87
39715;BME280;54166;53.172;-6.552;2023-02-12T12:06:20;100870.42;;;15.47;33.79
39715;BME280;54166;53.172;-6.552;2023-02-12T12:08:55;100871.54;;;15.77;33.49
39715;BME280;54166;53.172;-6.552;2023-02-12T12:11:28;100868.78;;;15.77;33.12
39715;BME280;54166;53.172;-6.552;2023-02-12T12:14:04;100865.76;;;16.05;32.80
39715;BME280;54166;53.172;-6.552;2023-02-12T12:16:39;100860.87;;;15.64;32.81
39715;BME280;54166;53.172;-6.552;2023-02-12T12:19:14;100859.18;;;15.87;32.80
39715;BME280;54166;53.172;-6.552;2023-02-12T12:21:47;100850.65;;;16.12;32.57
39715;BME280;54166;53.172;-6.552;2023-02-12T12:24:24;100845.09;;;15.88;32.34
39715;BME280;54166;53.172;-6.552;2023-02-12T12:26:59;100836.67;;;16.11;32.23
39715;BME280;54166;53.172;-6.552;2023-02-12T12:29:38;100839.95;;;16.05;32.10
39715;BME280;54166;53.172;-6.552;2023-02-12T12:32:10;100837.21;;;16.00;32.15
39715;BME280;54166;53.172;-6.552;2023-02-12T12:34:39;100837.69;;;15.70;32.11
39715;BME280;54166;53.172;-6.552;2023-02-12T12:37:26;100829.32;;;15.80;32.05
39715;BME280;54166;53.172;-6.552;2023-02-12T12:40:14;100825.29;;;16.11;31.94
39715;BME280;54166;53.172;-6.552;2023-02-12T12:43:02;100824.64;;;16.11;32.63
39715;BME280;54166;53.172;-6.552;2023-02-12T12:45:54;100821.88;;;16.11;32.72
39715;BME280;54166;53.172;-6.552;2023-02-12T12:48:37;100819.76;;;16.11;32.92
39715;BME280;54166;53.172;-6.552;2023-02-12T12:51:22;100819.53;;;16.12;33.06
39715;BME280;54166;53.172;-6.552;2023-02-12T12:54:04;100817.66;;;15.82;33.10
39715;BME280;54166;53.172;-6.552;2023-02-12T12:56:45;100815.95;;;16.17;33.24
39715;BME280;54166;53.172;-6.552;2023-02-12T12:59:29;100810.75;;;16.17;33.29
39715;BME280;54166;53.172;-6.552;2023-02-12T13:02:27;100805.12;;;16.17;33.35
39715;BME280;54166;53.172;-6.552;2023-02-12T13:05:34;100802.30;;;16.16;33.47